Longtown, North Carolina
Current Conditions -  °F | °C
As of 4:55 AM on Monday 22 Dec 2014 (Local Time) from KMWK Reporting Station
Overcast Overcast  
Wind Chill: 36°   Ceiling: 3300
Heat Index: 40°   Visibility: 10mi
Dew Point: 33°   Wind: 5mph
Humidity: 77%   Direction: 50°NE
Pressure: 30.16"   Gusts: NA
Location:  36.2374°N, 80.6343°W
Report Text: KMWK 220955Z AUTO 05004KT 10SM SCT025 BKN033 OVC050 04/01 A3016 RMK AO2 T00420005
Loading
Personal Weather Stations






























Interactive Weather Map New forecast layout! Learn more

10-Day Weather Forecast

Advertisements
Track Severe Weather on mobile